Latest Weather Observations for Goulburn Airport

IDN60801

Issued at 2:52 am EDT Saturday 29 February 2020 (issued every 10 minutes, with the page automatically refreshed every 10 minutes)

About weather observations | Map of weather stations | Latest weather observations for NSW | Other Formats
Station Details ID: 070330 Name: GOULBURN AIRPORT AWS Lat: -34.81 Lon: 149.73 Height: 640.0 m
Data from the previous 72 hours. | See also: Recent months at Goulburn Airport
Date/Time
EDT
Temp
°C
App
Temp
°C
Dew
Point
°C
Rel
Hum
%
Delta-T
°C
Wind Press
QNH
hPa
Press
MSL
hPa
Rain since
9am
mm
Dir  Spd
km/h
Gust
km/h
Spd
kts
Gust
kts
29/02:30am 14.8 13.3 11.8 82 1.7 E 11 13 6 7 1018.1 1015.4 0.0
29/02:00am 14.8 13.3 11.8 82 1.7 E 11 13 6 7 1018.6 1015.9 0.0
29/01:30am 14.8 12.8 11.6 81 1.8 E 13 17 7 9 1018.6 1015.9 0.0
29/01:00am 15.0 13.0 11.6 80 1.9 E 13 17 7 9 1018.6 1015.9 0.0
29/12:30am 15.2 13.3 11.8 80 1.9 E 13 17 7 9 1018.6 1015.9 0.0
29/12:00am 15.2 13.2 11.6 79 2.0 E 13 17 7 9 1018.6 1015.9 0.0
 
Date/Time
EDT
Temp
°C
App
Temp
°C
Dew
Point
°C
Rel
Hum
%
Delta-T
°C
Wind Press
QNH
hPa
Press
MSL
hPa
Rain since
9am
mm
Dir  Spd
km/h
Gust
km/h
Spd
kts
Gust
kts
28/11:43pm 15.3 12.9 11.5 78 2.1 E 15 22 8 12 1018.5 1015.7 0.0
28/11:30pm 15.3 12.5 11.5 78 2.1 E 17 20 9 11 1018.5 1015.7 0.0
28/11:00pm 15.3 12.6 11.7 79 2.0 E 17 22 9 12 1018.4 1015.6 0.0
28/10:50pm 15.2 12.1 11.6 79 2.0 E 19 24 10 13 1018.4 1015.6 0.0
28/10:30pm 15.2 12.2 11.8 80 1.9 E 19 28 10 15 1018.4 1015.6 0.0
28/10:00pm 15.4 11.7 11.6 78 2.1 E 22 30 12 16 1018.0 1015.3 0.0
28/09:30pm 15.5 11.8 11.5 77 2.2 ESE 22 33 12 18 1017.8 1015.1 0.0
28/09:00pm 15.7 11.6 11.5 76 2.3 ESE 24 32 13 17 1017.5 1014.8 0.0
28/08:30pm 16.2 12.5 11.6 74 2.6 E 22 28 12 15 1016.7 1013.9 0.0
28/08:00pm 16.4 12.7 11.6 73 2.7 E 22 33 12 18 1016.0 1013.3 0.0
28/07:30pm 17.3 13.5 11.3 68 3.4 E 22 32 12 17 1015.5 1012.7 0.0
28/07:00pm 18.9 14.1 11.5 62 4.2 E 28 43 15 23 1014.5 1011.8 0.0
28/06:30pm 20.6 15.3 11.2 55 5.3 ENE 30 37 16 20 1013.7 1010.9 0.0
28/06:00pm 22.9 18.7 11.0 47 6.8 E 24 33 13 18 1013.1 1010.4 0.0
28/05:44pm 23.4 19.7 10.1 43 7.5 ENE 20 37 11 20 1012.9 1010.2 0.0
28/05:30pm 26.5 24.9 4.3 24 11.5 WSW 2 7 1 4 1012.6 1009.8 0.0
28/05:00pm 25.8 23.8 4.3 25 11.1 NE 4 15 2 8 1012.3 1009.5 0.0
28/04:30pm 25.2 22.6 3.2 24 11.1 E 6 9 3 5 1012.3 1009.5 0.0
28/04:00pm 25.1 22.3 3.1 24 11.1 NE 7 11 4 6 1012.5 1009.7 0.0
28/03:30pm 25.1 22.7 4.3 26 10.7 NNW 6 9 3 5 1012.5 1009.7 0.0
28/03:00pm 24.4 20.8 3.1 25 10.7 E 11 17 6 9 1012.7 1009.9 0.0
28/02:30pm 24.0 20.3 2.2 24 10.7 SE 11 17 6 9 1013.1 1010.4 0.0
28/02:00pm 23.3 20.1 3.3 27 10.0 E 9 19 5 10 1013.3 1010.5 0.0
28/01:30pm 22.7 19.0 2.2 26 10.0 SE 11 20 6 11 1013.4 1010.6 0.0
28/01:00pm 22.4 19.7 3.5 29 9.4 E 7 11 4 6 1013.5 1010.7 0.0
28/12:30pm 21.9 18.6 2.6 28 9.4 E 9 15 5 8 1013.9 1011.1 0.0
28/12:00pm 21.3 18.5 2.1 28 9.2 WSW 6 13 3 7 1013.9 1011.1 0.0
28/11:30am 20.4 17.1 2.7 31 8.6 SW 9 15 5 8 1013.9 1011.1 0.0
28/11:00am 19.6 16.9 2.9 33 8.1 W 6 13 3 7 1014.0 1011.2 0.0
28/10:30am 18.7 14.3 2.9 35 7.6 W 15 19 8 10 1013.7 1010.9 0.0
28/10:00am 17.5 13.3 1.9 35 7.3 WNW 13 20 7 11 1013.6 1010.8 0.0
28/09:30am 16.6 12.1 1.9 37 6.8 WSW 15 20 8 11 1013.5 1010.7 0.0
28/09:00am 15.6 10.3 2.1 40 6.2 W 19 24 10 13 1013.0 1010.3 0.0
28/08:30am 14.6 9.2 2.2 43 5.7 W 20 24 11 13 1012.8 1010.0 0.0
28/08:00am 13.5 8.6 2.1 46 5.2 W 17 24 9 13 1012.4 1009.6 0.0
28/07:30am 11.9 7.4 2.4 52 4.3 NW 15 20 8 11 1012.0 1009.2 0.0
28/07:00am 11.5 7.7 1.7 51 4.3 NE 11 15 6 8 1011.7 1008.9 0.0
28/06:30am 8.1 3.9 1.5 63 2.8 N 13 15 7 8 1011.0 1008.2 0.0
28/06:00am 9.6 5.6 0.8 54 3.7 NNE 11 15 6 8 1010.9 1008.1 0.0
28/05:30am 11.8 5.0 0.6 46 4.8 WNW 26 32 14 17 1010.2 1007.4 0.0
28/05:00am 12.0 4.8 0.5 45 5.0 WNW 28 37 15 20 1010.2 1007.4 0.0
28/04:30am 10.9 7.5 -0.9 44 4.9 WSW 7 11 4 6 1011.2 1008.4 0.0
28/04:00am 11.1 5.2 -0.7 44 4.9 WNW 20 22 11 12 1010.8 1008.0 0.0
28/03:30am 11.7 5.4 -0.8 42 5.2 W 22 26 12 14 1010.9 1008.1 0.0
28/03:00am 13.3 6.2 -1.4 36 6.2 W 26 35 14 19 1010.5 1007.7 0.0
28/02:30am 11.6 7.4 -1.2 41 5.3 W 11 15 6 8 1010.4 1007.6 0.0
28/02:00am 11.3 6.8 -0.5 44 5.0 NW 13 19 7 10 1010.0 1007.1 0.0
28/01:30am 12.9 9.0 -1.8 36 6.1 WNW 9 13 5 7 1011.0 1008.2 0.0
28/01:00am 14.0 10.6 -2.0 33 6.7 WSW 6 13 3 7 1011.1 1008.3 0.0
28/12:30am 15.0 9.5 -2.4 30 7.2 NW 17 24 9 13 1010.9 1008.1 0.0
28/12:00am 15.1 11.1 -2.3 30 7.3 NW 9 17 5 9 1011.0 1008.2 0.0
 
Date/Time
EDT
Temp
°C
App
Temp
°C
Dew
Point
°C
Rel
Hum
%
Delta-T
°C
Wind Press
QNH
hPa
Press
MSL
hPa
Rain since
9am
mm
Dir  Spd
km/h
Gust
km/h
Spd
kts
Gust
kts
27/11:30pm 15.3 11.0 -1.3 32 7.1 NW 11 17 6 9 1011.0 1008.2 0.0
27/11:00pm 14.1 9.9 -1.1 35 6.5 NNW 11 17 6 9 1010.8 1008.0 0.0
27/10:30pm 15.7 11.8 -1.8 30 7.4 N 9 13 5 7 1010.9 1008.1 0.0
27/10:00pm 16.6 10.4 -3.0 26 8.2 NW 20 32 11 17 1010.6 1007.8 0.0
27/09:30pm 17.4 10.5 -2.8 25 8.5 WNW 24 35 13 19 1010.4 1007.6 0.0
27/09:00pm 17.0 11.0 -3.1 25 8.4 NW 19 26 10 14 1010.3 1007.5 0.0
27/08:30pm 16.0 12.0 -2.5 28 7.8 WNW 9 13 5 7 1010.1 1007.2 0.0
27/08:00pm 18.0 12.3 -3.4 23 9.0 WNW 17 20 9 11 1009.5 1006.7 0.0
27/07:30pm 19.7 13.6 -2.6 22 9.7 WNW 20 24 11 13 1008.9 1006.1 0.0
27/07:00pm 21.4 14.4 -3.1 19 10.7 WNW 24 33 13 18 1008.7 1005.8 0.0
27/06:30pm 22.4 15.3 -1.0 21 10.7 WNW 26 33 14 18 1008.1 1005.3 0.0
27/06:00pm 23.0 16.2 0.8 23 10.6 W 26 32 14 17 1008.4 1005.5 0.0
27/05:30pm 23.4 17.2 -0.1 21 11.0 WNW 22 33 12 18 1008.4 1005.5 0.0
27/05:00pm 23.8 16.4 -0.5 20 11.4 W 28 37 15 20 1008.5 1005.6 0.0
27/04:30pm 24.1 16.2 -1.7 18 11.8 W 30 39 16 21 1008.5 1005.6 0.0
27/04:00pm 24.7 17.1 -2.0 17 12.2 W 28 37 15 20 1008.7 1005.8 0.0
27/03:30pm 24.6 17.4 -2.0 17 12.1 NW 26 35 14 19 1008.9 1006.1 0.0
27/03:00pm 24.3 17.2 -1.5 18 11.9 WNW 26 39 14 21 1009.2 1006.4 0.0
27/02:30pm 23.6 16.8 0.7 22 10.9 WNW 26 35 14 19 1009.6 1006.8 0.0
27/02:00pm 23.3 17.0 1.6 24 10.5 NW 24 37 13 20 1010.0 1007.1 0.0
27/01:30pm 23.6 17.8 4.5 29 9.8 NW 24 35 13 19 1010.2 1007.4 0.0
27/01:00pm 22.6 16.1 4.6 31 9.2 NW 28 39 15 21 1010.7 1007.9 0.0
27/12:30pm 22.6 16.5 6.4 35 8.5 NW 28 39 15 21 1011.0 1008.2 0.0
27/12:04pm 21.5 15.4 6.6 38 7.8 NW 28 48 15 26 1011.3 1008.5 0.0
27/12:00pm 21.8 16.1 6.9 38 7.9 NW 26 48 14 26 1011.1 1008.3 0.0
27/11:30am 21.4 17.0 9.0 45 6.8 NNW 22 37 12 20 1011.6 1008.8 0.0
27/11:00am 19.8 16.2 9.7 52 5.6 N 19 33 10 18 1011.8 1009.0 0.0
27/10:30am 18.6 16.3 11.9 65 3.8 NNE 15 24 8 13 1012.2 1009.4 0.0
27/10:03am 17.7 15.2 12.4 71 3.0 NE 17 26 9 14 1012.4 1009.6 0.0
27/10:00am 16.8 14.1 11.7 72 2.9 NNE 17 24 9 13 1012.4 1009.6 0.0
27/09:30am 15.6 12.3 11.6 77 2.2 NE 20 26 11 14 1012.7 1009.9 0.0
27/09:24am 15.6 11.9 11.4 76 2.3 NE 22 26 12 14 1012.7 1009.9 0.0
27/09:07am 15.7 12.1 11.7 77 2.2 NNE 22 28 12 15 1012.7 1009.9 0.0
27/09:00am 15.5 11.5 11.7 78 2.1 NE 24 30 13 16 1012.7 1009.9 0.0
27/08:30am 15.2 12.0 11.8 80 1.9 NE 20 28 11 15 1012.9 1010.2 0.0
27/08:00am 14.3 12.0 11.6 84 1.5 NE 15 20 8 11 1012.8 1010.0 0.0
27/07:30am 13.3 12.1 11.5 89 1.0 NE 9 13 5 7 1012.9 1010.2 0.0
27/07:00am 12.2 11.3 10.6 90 0.9 ENE 6 9 3 5 1012.7 1009.9 0.0
27/06:30am 12.2 10.7 10.4 89 1.0 ENE 9 13 5 7 1012.5 1009.7 0.0
27/06:09am 12.0 10.7 10.1 88 1.0 ENE 7 9 4 5 1012.2 1009.4 0.0
27/06:00am 12.1 10.5 10.2 88 1.0 ENE 9 13 5 7 1012.1 1009.3 0.0
27/05:47am 12.4 10.1 10.3 87 1.1 ENE 13 17 7 9 1012.1 1009.3 0.0
27/05:30am 12.5 10.2 10.4 87 1.1 ENE 13 17 7 9 1012.0 1009.2 0.0
27/05:00am 13.0 10.8 10.7 86 1.2 ENE 13 17 7 9 1011.9 1009.1 0.0
27/04:30am 13.5 11.5 11.4 87 1.2 NE 13 17 7 9 1012.0 1009.2 0.0
27/04:09am 13.3 11.2 11.2 87 1.1 ENE 13 17 7 9 1011.9 1009.1 0.0
27/04:00am 13.3 11.5 11.0 86 1.3 ENE 11 17 6 9 1012.0 1009.2 0.0
27/03:30am 13.5 11.4 11.2 86 1.3 ENE 13 17 7 9 1012.0 1009.2 0.0
27/03:00am 13.6 11.2 11.3 86 1.3 ENE 15 20 8 11 1011.9 1009.1 0.0
27/02:30am 13.5 11.8 11.2 86 1.3 E 11 15 6 8 1012.0 1009.2 0.0
27/02:23am 13.6 11.5 11.3 86 1.3 E 13 17 7 9 1012.0 1009.2 0.0
27/02:00am 13.7 12.5 11.6 87 1.2 ENE 9 13 5 7 1012.0 1009.2 0.0
27/01:46am 13.8 11.9 11.7 87 1.2 ENE 13 17 7 9 1012.0 1009.2 0.0
27/01:30am 13.7 12.2 11.8 88 1.1 ENE 11 13 6 7 1012.1 1009.3 0.0
27/01:02am 13.5 11.9 11.7 89 1.0 ENE 11 15 6 8 1012.0 1009.2 0.0
27/01:00am 13.5 11.6 11.7 89 1.0 ENE 13 15 7 8 1012.0 1009.2 0.0
27/12:30am 13.5 14.2 12.1 91 0.8 CALM 0 0 0 0 1012.0 1009.2 0.0
27/12:00am 12.9 13.3 11.3 90 0.9 CALM 0 0 0 0 1011.7 1008.9 0.0
 
Date/Time
EDT
Temp
°C
App
Temp
°C
Dew
Point
°C
Rel
Hum
%
Delta-T
°C
Wind Press
QNH
hPa
Press
MSL
hPa
Rain since
9am
mm
Dir  Spd
km/h
Gust
km/h
Spd
kts
Gust
kts
26/11:42pm 13.3 13.8 11.5 89 1.0 CALM 0 0 0 0 1011.7 1008.9 0.0
26/11:30pm 13.4 13.4 11.3 87 1.1 E 2 6 1 3 1011.6 1008.8 0.0
26/11:00pm 13.9 13.1 11.8 87 1.2 E 7 9 4 5 1011.7 1008.9 0.0
26/10:30pm 14.0 13.1 11.5 85 1.4 ESE 7 9 4 5 1011.4 1008.6 0.0
26/10:00pm 15.0 13.0 12.7 86 1.3 E 15 22 8 12 1011.3 1008.5 0.0
26/09:30pm 16.0 13.7 12.9 82 1.8 ENE 17 24 9 13 1010.6 1007.8 0.0
26/09:00pm 17.5 15.4 11.3 67 3.5 NNW 13 24 7 13 1009.9 1007.0 0.0
26/08:30pm 17.6 12.9 3.1 38 6.9 WNW 17 20 9 11 1009.1 1006.3 0.0
26/08:00pm 18.9 14.7 1.4 31 8.2 WNW 13 15 7 8 1008.9 1006.1 0.0
26/07:30pm 21.8 16.6 -0.2 23 10.2 WNW 17 20 9 11 1008.4 1005.5 0.0
26/07:00pm 24.2 17.1 -0.9 19 11.7 W 26 33 14 18 1007.7 1004.9 0.0
26/06:30pm 25.5 19.0 2.9 23 11.4 WNW 26 35 14 19 1007.4 1004.6 0.0
26/06:00pm 26.4 20.6 6.4 28 10.8 W 26 39 14 21 1007.2 1004.3 0.0
26/05:30pm 26.6 18.0 6.6 28 10.8 W 41 54 22 29 1006.7 1003.8 0.0
26/05:02pm 27.4 20.7 8.3 30 10.7 W 33 52 18 28 1006.3 1003.5 0.0
26/05:00pm 27.2 20.1 8.1 30 10.7 W 35 52 19 28 1006.3 1003.5 0.0
26/04:30pm 27.3 18.0 7.7 29 10.8 W 46 59 25 32 1006.2 1003.4 0.0
26/04:00pm 27.9 19.0 7.7 28 11.2 W 44 63 24 34 1006.1 1003.3 0.0
26/03:30pm 28.3 18.4 6.4 25 11.9 WNW 48 67 26 36 1006.2 1003.4 0.0
26/03:07pm 28.2 19.3 6.9 26 11.7 WNW 43 74 23 40 1006.2 1003.4 0.0
26/03:00pm 28.5 20.3 9.7 31 10.8 WNW 43 57 23 31 1006.2 1003.4 0.0
26/02:30pm 26.9 19.6 13.3 43 8.2 WNW 44 63 24 34 1006.2 1003.4 0.0
26/02:03pm 28.1 21.2 15.7 46 7.8 WNW 46 65 25 35 1006.3 1003.5 0.0
26/02:00pm 27.0 18.8 14.1 45 7.9 WNW 50 65 27 35 1006.3 1003.5 0.0
26/01:43pm 26.1 21.4 15.8 53 6.5 WNW 35 56 19 30 1006.3 1003.5 0.0
26/01:30pm 25.4 20.7 16.8 59 5.5 NW 37 46 20 25 1006.7 1003.8 0.0
26/01:00pm 26.3 20.9 16.0 53 6.5 NW 39 57 21 31 1007.0 1004.1 0.0
26/12:32pm 25.5 19.5 15.5 54 6.2 NW 41 59 22 32 1007.5 1004.7 0.0
26/12:30pm 25.3 20.0 16.2 57 5.7 NW 39 52 21 28 1007.5 1004.7 0.0
26/12:05pm 25.2 19.5 15.2 54 6.2 NW 39 57 21 31 1008.0 1005.2 0.0
26/12:00pm 24.8 19.2 15.4 56 5.8 NW 39 54 21 29 1008.1 1005.3 0.0
26/11:30am 23.7 19.1 16.0 62 4.8 NW 35 46 19 25 1008.8 1006.0 0.0
26/11:00am 23.4 19.3 16.4 64 4.4 NW 33 44 18 24 1009.1 1006.3 0.0
26/10:30am 23.2 17.9 16.3 65 4.3 WNW 39 50 21 27 1009.3 1006.5 0.0
26/10:00am 23.6 18.6 16.1 62 4.7 WNW 37 54 20 29 1009.4 1006.6 0.0
26/09:30am 23.9 18.1 16.9 65 4.4 WNW 43 54 23 29 1009.4 1006.6 0.0
26/09:00am 23.9 18.8 16.7 64 4.5 NW 39 48 21 26 1009.1 1006.3 0.0
26/08:30am 22.3 18.6 16.1 68 3.8 NW 30 41 16 22 1009.3 1006.5 0.0
26/08:00am 21.4 18.0 15.7 70 3.5 NW 28 37 15 20 1009.5 1006.7 0.0
26/07:30am 20.7 18.9 15.9 74 3.0 NNW 20 30 11 16 1009.7 1006.9 0.0
26/07:00am 19.9 18.8 15.3 75 2.8 NNW 15 20 8 11 1010.0 1007.1 0.0
26/06:30am 19.7 18.1 14.9 74 2.9 NNW 17 22 9 12 1010.0 1007.1 0.0
26/06:00am 20.2 18.0 14.8 71 3.3 NW 20 28 11 15 1010.1 1007.2 0.0
26/05:30am 20.0 17.7 14.6 71 3.2 NW 20 26 11 14 1010.1 1007.2 0.0
26/05:00am 19.8 17.5 14.6 72 3.1 NW 20 30 11 16 1009.9 1007.0 0.0
26/04:30am 17.2 16.9 14.3 83 1.7 NW 9 13 5 7 1010.0 1007.1 0.0
26/04:00am 15.7 16.8 13.4 86 1.3 CALM 0 0 0 0 1010.3 1007.5 0.0
26/03:30am 16.5 17.8 14.0 85 1.5 CALM 0 0 0 0 1010.8 1008.0 0.0
26/03:00am 16.6 15.6 13.3 81 1.9 NW 11 11 6 6 1010.9 1008.1 0.0

Other formats

Comma delimited format used in spreadsheet applications
http://www.bom.gov.au/fwo/IDN60801/IDN60801.95716.axf

JavaScript Object Notation format (JSON) in row-major order
http://www.bom.gov.au/fwo/IDN60801/IDN60801.95716.json

Data quality

Most of these data are generated automatically and are frequently updated. Quality checks on data are not normally performed. It is possible for incorrect values to appear. Refer to information at About Latest Weather Observations and please check the disclaimer before using these data.